createdAt,value
2022-10-18T00:00:15.894Z,96192.34
2022-10-18T00:02:43.699Z,96185.19
2022-10-18T00:05:10.328Z,96187.97
2022-10-18T00:07:37.231Z,96182.84
2022-10-18T00:10:04.646Z,96185.03
2022-10-18T00:12:34.162Z,96182.50
2022-10-18T00:15:01.317Z,96185.34
2022-10-18T00:17:28.433Z,96190.72
2022-10-18T00:19:55.305Z,96197.25
2022-10-18T00:22:21.980Z,96191.91
2022-10-18T00:24:48.582Z,96187.78
2022-10-18T00:27:15.183Z,96197.50
2022-10-18T00:29:41.785Z,96186.66
2022-10-18T00:32:08.537Z,96192.00
2022-10-18T00:34:36.635Z,96185.97
2022-10-18T00:37:03.273Z,96191.75
2022-10-18T00:39:29.877Z,96197.91
2022-10-18T00:41:56.477Z,96201.66
2022-10-18T00:44:25.942Z,96200.91
2022-10-18T00:47:02.076Z,96188.13
2022-10-18T00:49:40.644Z,96189.28
2022-10-18T00:52:16.952Z,96194.22
2022-10-18T00:54:47.437Z,96194.72
2022-10-18T00:57:14.417Z,96197.19
2022-10-18T00:59:42.872Z,96198.94
2022-10-18T01:02:10.100Z,96195.72
2022-10-18T01:04:39.191Z,96196.41
2022-10-18T01:07:30.729Z,96199.91
2022-10-18T01:10:07.874Z,96192.56
2022-10-18T01:12:47.511Z,96198.25
2022-10-18T01:15:23.961Z,96206.84
2022-10-18T01:18:12.939Z,96203.09
2022-10-18T01:20:39.474Z,96204.41
2022-10-18T01:23:17.530Z,96194.81
2022-10-18T01:26:05.220Z,96194.22
2022-10-18T01:29:06.641Z,96198.47
2022-10-18T01:31:44.044Z,96198.88
2022-10-18T01:34:17.547Z,96190.59
2022-10-18T01:36:52.149Z,96193.44
2022-10-18T01:39:34.800Z,96198.94
2022-10-18T01:42:07.310Z,96210.16
2022-10-18T01:44:37.712Z,96203.44
2022-10-18T01:47:09.401Z,96195.53
2022-10-18T01:49:36.244Z,96201.91
2022-10-18T01:52:03.029Z,96208.31
2022-10-18T01:54:35.783Z,96212.00
2022-10-18T01:57:14.167Z,96206.44
2022-10-18T01:59:54.762Z,96208.97
2022-10-18T02:02:40.466Z,96207.38
2022-10-18T02:05:13.308Z,96200.16
2022-10-18T02:07:55.349Z,96193.31
2022-10-18T02:10:39.939Z,96192.50
2022-10-18T02:13:08.306Z,96196.00
2022-10-18T02:15:41.497Z,96196.59
2022-10-18T02:18:24.441Z,96196.25
2022-10-18T02:20:52.164Z,96200.50
2022-10-18T02:23:25.202Z,96200.53
2022-10-18T02:25:53.315Z,96198.56
2022-10-18T02:28:20.459Z,96194.66
2022-10-18T02:31:05.580Z,96185.44
2022-10-18T02:33:32.122Z,96192.16
2022-10-18T02:36:18.401Z,96178.34
2022-10-18T02:38:47.443Z,96192.53
2022-10-18T02:41:23.196Z,96195.06
2022-10-18T02:43:49.989Z,96192.31
2022-10-18T02:46:16.619Z,96189.66
2022-10-18T02:48:43.242Z,96185.88
2022-10-18T02:51:09.961Z,96193.28
2022-10-18T02:53:36.756Z,96190.50
2022-10-18T02:56:03.599Z,96191.94
2022-10-18T02:58:30.368Z,96190.16
2022-10-18T03:00:57.746Z,96188.47
2022-10-18T03:03:25.261Z,96195.19
2022-10-18T03:05:52.682Z,96198.09
2022-10-18T03:08:20.104Z,96205.13
2022-10-18T03:10:47.387Z,96210.03
2022-10-18T03:13:14.141Z,96211.03
2022-10-18T03:15:40.711Z,96216.63
2022-10-18T03:18:07.383Z,96217.22
2022-10-18T03:20:34.668Z,96211.66
2022-10-18T03:23:01.275Z,96215.28
2022-10-18T03:25:27.867Z,96218.19
2022-10-18T03:27:54.491Z,96222.91
2022-10-18T03:30:21.126Z,96223.41
2022-10-18T03:32:47.709Z,96226.53
2022-10-18T03:35:14.308Z,96218.72
2022-10-18T03:37:40.905Z,96221.06
2022-10-18T03:40:08.510Z,96221.97
2022-10-18T03:42:35.345Z,96223.34
2022-10-18T03:45:02.322Z,96226.53
2022-10-18T03:47:29.017Z,96231.56
2022-10-18T03:49:57.451Z,96233.78
2022-10-18T03:52:24.690Z,96237.38
2022-10-18T03:54:51.682Z,96227.50
2022-10-18T03:57:18.482Z,96240.75
2022-10-18T03:59:45.110Z,96237.00
2022-10-18T04:02:11.723Z,96244.41
2022-10-18T04:04:38.959Z,96252.75
2022-10-18T04:07:06.116Z,96254.38
2022-10-18T04:09:32.761Z,96253.66
2022-10-18T04:11:59.401Z,96262.00
2022-10-18T04:14:26.050Z,96257.88
2022-10-18T04:16:52.828Z,96258.78
2022-10-18T04:19:19.474Z,96265.09
2022-10-18T04:21:46.950Z,96261.03
2022-10-18T04:24:13.595Z,96261.22
2022-10-18T04:26:40.220Z,96265.03
2022-10-18T04:29:06.926Z,96263.44
2022-10-18T04:31:33.809Z,96261.13
2022-10-18T04:34:00.732Z,96251.13
2022-10-18T04:36:27.438Z,96256.53
2022-10-18T04:38:54.089Z,96251.63
2022-10-18T04:41:20.684Z,96256.63
2022-10-18T04:43:47.285Z,96247.41
2022-10-18T04:46:13.943Z,96247.97
2022-10-18T04:48:52.526Z,96254.63
2022-10-18T04:51:19.158Z,96249.13
2022-10-18T04:53:45.760Z,96257.59
2022-10-18T04:56:15.098Z,96245.00
2022-10-18T04:58:41.945Z,96262.44
2022-10-18T05:01:08.657Z,96253.03
2022-10-18T05:03:35.795Z,96263.38
2022-10-18T05:06:02.989Z,96265.75
2022-10-18T05:08:30.982Z,96267.91
2022-10-18T05:10:57.746Z,96262.59
2022-10-18T05:13:24.647Z,96261.56
2022-10-18T05:15:51.274Z,96260.81
2022-10-18T05:18:18.249Z,96251.78
2022-10-18T05:20:46.481Z,96253.94
2022-10-18T05:23:13.222Z,96263.78
2022-10-18T05:25:44.966Z,96262.00
2022-10-18T05:28:34.700Z,96257.19
2022-10-18T05:31:08.178Z,96258.59
2022-10-18T05:33:35.339Z,96260.53
2022-10-18T05:36:02.155Z,96267.63
2022-10-18T05:38:29.040Z,96267.44
2022-10-18T05:40:55.798Z,96261.25
2022-10-18T05:43:22.374Z,96263.78
2022-10-18T05:45:50.905Z,96265.53
2022-10-18T05:48:18.190Z,96261.34
2022-10-18T05:50:45.736Z,96269.13
2022-10-18T05:53:24.725Z,96269.13
2022-10-18T05:56:02.164Z,96262.22
2022-10-18T05:58:28.744Z,96258.69
2022-10-18T06:01:00.075Z,96256.09
2022-10-18T06:03:28.484Z,96255.25
2022-10-18T06:06:07.269Z,96249.69
2022-10-18T06:08:35.734Z,96250.53
2022-10-18T06:11:15.882Z,96250.94
2022-10-18T06:13:44.929Z,96244.34
2022-10-18T06:16:13.724Z,96247.19
2022-10-18T06:18:40.904Z,96248.53
2022-10-18T06:21:08.260Z,96253.28
2022-10-18T06:23:35.620Z,96260.84
2022-10-18T06:26:05.445Z,96260.28
2022-10-18T06:28:35.461Z,96260.63
2022-10-18T06:31:02.319Z,96267.03
2022-10-18T06:33:31.912Z,96274.56
2022-10-18T06:36:04.806Z,96271.44
2022-10-18T06:38:32.511Z,96271.75
2022-10-18T06:41:00.041Z,96283.19
2022-10-18T06:43:27.068Z,96282.34
2022-10-18T06:45:55.112Z,96289.16
2022-10-18T06:48:22.828Z,96293.47
2022-10-18T06:50:58.516Z,96290.31
2022-10-18T06:53:27.284Z,96285.69
2022-10-18T06:56:00.372Z,96291.28
2022-10-18T06:58:27.356Z,96292.00
2022-10-18T07:00:53.994Z,96287.22
2022-10-18T07:03:20.793Z,96290.63
2022-10-18T07:05:49.187Z,96293.13
2022-10-18T07:08:16.294Z,96293.72
2022-10-18T07:10:43.117Z,96299.44
2022-10-18T07:13:31.332Z,96295.13
2022-10-18T07:16:06.183Z,96286.41
2022-10-18T07:18:38.152Z,96296.34
2022-10-18T07:21:10.052Z,96293.91
2022-10-18T07:23:39.733Z,96291.84
2022-10-18T07:26:28.699Z,96293.03
2022-10-18T07:28:58.468Z,96295.84
2022-10-18T07:31:26.120Z,96287.78
2022-10-18T07:33:53.484Z,96295.13
2022-10-18T07:36:20.598Z,96291.25
2022-10-18T07:38:47.271Z,96292.19
2022-10-18T07:41:14.497Z,96289.09
2022-10-18T07:43:49.802Z,96292.47
2022-10-18T07:46:17.694Z,96293.47
2022-10-18T07:48:44.286Z,96294.66
2022-10-18T07:51:11.578Z,96295.63
2022-10-18T07:53:38.181Z,96297.41
2022-10-18T07:56:09.575Z,96295.50
2022-10-18T07:58:36.470Z,96294.22
2022-10-18T08:01:04.546Z,96290.13
2022-10-18T08:03:31.319Z,96291.22
2022-10-18T08:05:58.121Z,96285.34
2022-10-18T08:08:27.309Z,96285.31
2022-10-18T08:10:54.106Z,96283.34
2022-10-18T08:13:21.105Z,96288.25
2022-10-18T08:15:47.918Z,96292.91
2022-10-18T08:18:14.602Z,96292.63
2022-10-18T08:20:45.442Z,96284.03
2022-10-18T08:23:12.638Z,96288.28
2022-10-18T08:25:39.228Z,96286.56
2022-10-18T08:28:06.890Z,96289.31
2022-10-18T08:30:35.514Z,96303.44
2022-10-18T08:33:02.949Z,96295.13
2022-10-18T08:35:29.599Z,96300.28
2022-10-18T08:37:56.212Z,96294.72
2022-10-18T08:40:22.988Z,96298.69
2022-10-18T08:43:27.103Z,96304.31
2022-10-18T08:45:54.769Z,96288.34
2022-10-18T08:48:32.545Z,96290.78
2022-10-18T08:51:00.292Z,96282.47
2022-10-18T08:53:40.483Z,96283.41
2022-10-18T08:56:12.286Z,96276.72
2022-10-18T08:58:39.643Z,96282.72
2022-10-18T09:01:21.256Z,96287.41
2022-10-18T09:04:20.954Z,96287.66
2022-10-18T09:07:19.685Z,96288.09
2022-10-18T09:10:20.049Z,96287.41
2022-10-18T09:13:01.994Z,96280.84
2022-10-18T09:15:49.280Z,96279.44
2022-10-18T09:18:28.208Z,96283.78
2022-10-18T09:21:01.083Z,96283.47
2022-10-18T09:23:51.761Z,96284.47
2022-10-18T09:26:24.033Z,96279.28
2022-10-18T09:29:13.161Z,96275.00
2022-10-18T09:32:15.527Z,96271.38
2022-10-18T09:34:51.952Z,96272.03
2022-10-18T09:37:22.874Z,96271.44
2022-10-18T09:39:55.700Z,96268.53
2022-10-18T09:42:34.999Z,96269.78
2022-10-18T09:45:13.861Z,96266.59
2022-10-18T09:47:51.411Z,96260.81
2022-10-18T09:50:27.825Z,96268.03
2022-10-18T09:53:12.901Z,96260.97
2022-10-18T09:56:06.535Z,96262.88
2022-10-18T09:58:48.484Z,96263.56
2022-10-18T10:01:27.996Z,96261.06
2022-10-18T10:03:56.980Z,96260.56
2022-10-18T10:06:32.175Z,96260.84
2022-10-18T10:09:05.493Z,96250.38
2022-10-18T10:11:38.682Z,96257.09
2022-10-18T10:14:24.363Z,96258.63
2022-10-18T10:16:58.285Z,96252.66
2022-10-18T10:19:30.649Z,96249.56
2022-10-18T10:22:03.028Z,96251.16
2022-10-18T10:24:36.836Z,96252.53
2022-10-18T10:27:07.066Z,96254.56
2022-10-18T10:29:45.822Z,96262.28
2022-10-18T10:32:18.240Z,96262.69
2022-10-18T10:34:45.279Z,96263.09
2022-10-18T10:37:33.257Z,96246.09
2022-10-18T10:40:24.113Z,96247.97
2022-10-18T10:43:08.758Z,96242.88
2022-10-18T10:46:06.595Z,96247.81
2022-10-18T10:48:41.853Z,96240.78
2022-10-18T10:51:13.218Z,96239.25
2022-10-18T10:53:42.413Z,96237.56
2022-10-18T10:56:28.692Z,96234.84
2022-10-18T10:59:01.785Z,96237.34
2022-10-18T11:01:32.918Z,96233.53
2022-10-18T11:04:05.060Z,96228.34
2022-10-18T11:06:50.058Z,96223.09
2022-10-18T11:09:27.331Z,96215.84
2022-10-18T11:12:05.674Z,96215.81
2022-10-18T11:14:40.986Z,96212.03
2022-10-18T11:17:25.345Z,96215.59
2022-10-18T11:20:07.224Z,96208.63
2022-10-18T11:22:42.118Z,96200.56
2022-10-18T11:25:14.587Z,96206.38
2022-10-18T11:27:46.433Z,96197.25
2022-10-18T11:30:45.146Z,96198.69
2022-10-18T11:33:56.454Z,96190.28
2022-10-18T11:39:13.585Z,96181.19
2022-10-18T11:41:49.456Z,96181.91
2022-10-18T11:45:21.454Z,96179.03
2022-10-18T11:48:10.088Z,96177.13
2022-10-18T11:50:45.090Z,96167.13
2022-10-18T11:53:27.123Z,96168.75
2022-10-18T11:56:12.285Z,96168.53
2022-10-18T11:58:53.865Z,96156.41
2022-10-18T12:01:28.918Z,96151.53
2022-10-18T12:04:15.069Z,96142.16
2022-10-18T12:06:49.983Z,96140.19
2022-10-18T12:09:24.576Z,96134.78
2022-10-18T12:12:01.087Z,96137.47
2022-10-18T12:14:58.525Z,96131.56
2022-10-18T12:17:44.001Z,96123.53
2022-10-18T12:20:27.038Z,96125.41
2022-10-18T12:23:03.620Z,96129.47
2022-10-18T12:25:35.575Z,96126.78
2022-10-18T12:28:08.312Z,96120.06
2022-10-18T12:30:43.578Z,96120.84
2022-10-18T12:33:27.768Z,96113.31
2022-10-18T12:36:07.094Z,96118.19
2022-10-18T12:38:39.229Z,96106.03
2022-10-18T12:41:06.194Z,96100.66
2022-10-18T12:43:35.390Z,96100.41
2022-10-18T12:46:09.400Z,96101.50
2022-10-18T12:48:43.056Z,96100.97
2022-10-18T12:51:22.331Z,96096.09
2022-10-18T12:54:12.589Z,96091.28
2022-10-18T12:56:42.282Z,96082.09
2022-10-18T12:59:14.640Z,96085.06
2022-10-18T13:01:50.422Z,96070.00
2022-10-18T13:04:29.169Z,96069.75
2022-10-18T13:06:58.723Z,96068.34
2022-10-18T13:09:29.624Z,96074.56
2022-10-18T13:12:16.202Z,96075.38
2022-10-18T13:15:24.059Z,96070.53
2022-10-18T13:18:19.313Z,96072.38
2022-10-18T13:21:17.887Z,96067.47
2022-10-18T13:23:57.707Z,96066.19
2022-10-18T13:26:43.134Z,96063.41
2022-10-18T13:29:21.808Z,96059.47
2022-10-18T13:32:03.901Z,96056.81
2022-10-18T13:34:36.113Z,96059.47
2022-10-18T13:37:23.594Z,96054.03
2022-10-18T13:39:51.606Z,96061.09
2022-10-18T13:42:30.504Z,96057.47
2022-10-18T13:45:31.985Z,96053.41
2022-10-18T13:48:29.616Z,96061.44
2022-10-18T13:51:26.041Z,96056.03
2022-10-18T13:54:14.321Z,96050.59
2022-10-18T13:56:51.340Z,96055.59
2022-10-18T13:59:40.703Z,96055.28
2022-10-18T14:02:51.204Z,96063.88
2022-10-18T14:05:47.493Z,96063.53
2022-10-18T14:11:24.383Z,96051.22
2022-10-18T14:14:32.769Z,96050.22
2022-10-18T14:17:17.659Z,96049.34
2022-10-18T14:19:46.853Z,96044.25
2022-10-18T14:22:21.632Z,96051.16
2022-10-18T14:24:59.132Z,96057.69
2022-10-18T14:27:31.819Z,96047.88
2022-10-18T14:30:14.173Z,96043.25
2022-10-18T14:32:51.272Z,96037.84
2022-10-18T14:35:32.485Z,96043.16
2022-10-18T14:38:01.366Z,96038.34
2022-10-18T14:40:39.673Z,96042.09
2022-10-18T14:43:10.564Z,96041.25
2022-10-18T14:45:37.253Z,96035.28
2022-10-18T14:48:21.325Z,96043.41
2022-10-18T14:50:58.855Z,96041.31
2022-10-18T14:53:30.940Z,96032.91
2022-10-18T14:56:02.498Z,96034.97
2022-10-18T14:58:32.594Z,96030.13
2022-10-18T15:00:59.987Z,96023.13
2022-10-18T15:03:27.028Z,96027.94
2022-10-18T15:06:02.989Z,96026.19
2022-10-18T15:08:43.744Z,96016.31
2022-10-18T15:11:14.696Z,96016.84
2022-10-18T15:13:55.641Z,96012.91
2022-10-18T15:16:27.985Z,96024.03
2022-10-18T15:19:14.811Z,96018.09
2022-10-18T15:22:19.725Z,96016.13
2022-10-18T15:24:43.992Z,96016.28
2022-10-18T15:27:20.610Z,96019.53
2022-10-18T15:29:47.513Z,96011.59
2022-10-18T15:32:29.549Z,96022.56
2022-10-18T15:35:09.304Z,96015.31
2022-10-18T15:37:45.957Z,96011.13
2022-10-18T15:40:21.312Z,96011.88
2022-10-18T15:42:56.277Z,96008.72
2022-10-18T15:45:23.054Z,96006.03
2022-10-18T15:48:06.031Z,96002.81
2022-10-18T15:50:44.740Z,96005.59
2022-10-18T15:53:20.649Z,95996.94
2022-10-18T15:55:49.458Z,95988.88
2022-10-18T15:58:39.131Z,95988.84
2022-10-18T16:01:15.324Z,95984.97
2022-10-18T16:03:43.646Z,95984.97
2022-10-18T16:06:14.651Z,95976.31
2022-10-18T16:08:47.175Z,95980.56
2022-10-18T16:11:17.415Z,95979.09
2022-10-18T16:13:44.430Z,95977.53
2022-10-18T16:16:18.983Z,95976.47
2022-10-18T16:18:45.728Z,95974.66
2022-10-18T16:21:31.869Z,95969.53
2022-10-18T16:23:58.845Z,95971.50
2022-10-18T16:26:27.565Z,95977.75
2022-10-18T16:28:55.527Z,95971.31
2022-10-18T16:31:25.517Z,95969.13
2022-10-18T16:33:54.160Z,95973.66
2022-10-18T16:36:23.412Z,95979.34
2022-10-18T16:38:51.418Z,95979.34
2022-10-18T16:41:18.545Z,95980.44
2022-10-18T16:43:47.017Z,95981.53
2022-10-18T16:46:23.086Z,95989.31
2022-10-18T16:48:51.512Z,95989.59
2022-10-18T16:51:18.130Z,95991.09
2022-10-18T16:53:45.363Z,95993.16
2022-10-18T16:56:18.626Z,95983.94
2022-10-18T16:58:48.031Z,95993.56
2022-10-18T17:01:18.341Z,95997.97
2022-10-18T17:03:45.969Z,95997.41
2022-10-18T17:06:27.100Z,95995.03
2022-10-18T17:08:55.069Z,96003.88
2022-10-18T17:11:23.870Z,96001.13
2022-10-18T17:13:50.800Z,96005.03
2022-10-18T17:16:33.071Z,95996.91
2022-10-18T17:19:03.205Z,96002.44
2022-10-18T17:21:31.090Z,96018.88
2022-10-18T17:24:00.526Z,96010.66
2022-10-18T17:26:29.331Z,96019.28
2022-10-18T17:29:04.097Z,96017.84
2022-10-18T17:31:31.777Z,96015.81
2022-10-18T17:33:58.597Z,96019.47
2022-10-18T17:36:25.601Z,96018.41
2022-10-18T17:38:54.346Z,96023.84
2022-10-18T17:41:21.827Z,96028.41
2022-10-18T17:43:52.359Z,96025.41
2022-10-18T17:46:19.191Z,96037.66
2022-10-18T17:48:46.233Z,96036.16
2022-10-18T17:51:17.781Z,96029.91
2022-10-18T17:53:45.161Z,96033.75
2022-10-18T17:56:13.189Z,96034.69
2022-10-18T17:58:40.629Z,96042.06
2022-10-18T18:01:14.455Z,96045.91
2022-10-18T18:03:42.405Z,96044.13
2022-10-18T18:06:30.274Z,96041.88
2022-10-18T18:08:59.116Z,96042.53
2022-10-18T18:11:25.847Z,96043.03
2022-10-18T18:13:55.528Z,96042.69
2022-10-18T18:16:25.285Z,96052.41
2022-10-18T18:18:54.421Z,96049.34
2022-10-18T18:21:22.394Z,96054.28
2022-10-18T18:23:50.236Z,96052.63
2022-10-18T18:26:17.834Z,96048.41
2022-10-18T18:28:46.042Z,96057.63
2022-10-18T18:31:22.118Z,96053.91
2022-10-18T18:33:50.077Z,96058.06
2022-10-18T18:36:17.155Z,96058.78
2022-10-18T18:38:44.515Z,96064.22
2022-10-18T18:41:12.967Z,96062.59
2022-10-18T18:43:43.145Z,96066.31
2022-10-18T18:46:11.076Z,96058.09
2022-10-18T18:48:38.135Z,96061.13
2022-10-18T18:51:07.990Z,96063.22
2022-10-18T18:53:38.927Z,96059.22
2022-10-18T18:56:11.765Z,96064.47
2022-10-18T18:58:39.597Z,96057.19
2022-10-18T19:01:21.951Z,96054.34
2022-10-18T19:03:53.717Z,96051.72
2022-10-18T19:06:46.801Z,96047.44
2022-10-18T19:09:15.874Z,96055.91
2022-10-18T19:11:44.574Z,96052.75
2022-10-18T19:14:12.505Z,96051.81
2022-10-18T19:16:41.429Z,96056.53
2022-10-18T19:19:13.259Z,96059.78
2022-10-18T19:21:49.049Z,96058.47
2022-10-18T19:24:15.858Z,96059.69
2022-10-18T19:26:55.193Z,96055.81
2022-10-18T19:29:26.995Z,96060.47
2022-10-18T19:31:56.662Z,96060.84
2022-10-18T19:34:25.806Z,96061.81
2022-10-18T19:36:52.983Z,96054.19
2022-10-18T19:39:22.764Z,96052.97
2022-10-18T19:41:52.161Z,96051.41
2022-10-18T19:44:19.730Z,96061.72
2022-10-18T19:46:47.564Z,96058.63
2022-10-18T19:49:14.731Z,96053.53
2022-10-18T19:51:41.664Z,96052.38
2022-10-18T19:54:08.272Z,96048.47
2022-10-18T19:56:34.847Z,96050.44
2022-10-18T19:59:01.474Z,96057.50
2022-10-18T20:01:28.753Z,96061.59
2022-10-18T20:03:55.794Z,96058.78
2022-10-18T20:06:23.640Z,96057.41
2022-10-18T20:08:51.178Z,96055.16
2022-10-18T20:11:21.340Z,96057.84
2022-10-18T20:13:48.326Z,96056.53
2022-10-18T20:16:17.082Z,96055.72
2022-10-18T20:18:43.896Z,96039.50
2022-10-18T20:21:13.356Z,96039.06
2022-10-18T20:23:42.135Z,96048.28
2022-10-18T20:26:17.938Z,96043.38
2022-10-18T20:28:52.115Z,96055.06
2022-10-18T20:31:19.789Z,96049.38
2022-10-18T20:33:47.657Z,96053.06
2022-10-18T20:36:17.569Z,96055.81
2022-10-18T20:38:46.319Z,96050.56
2022-10-18T20:41:19.512Z,96059.53
2022-10-18T20:43:54.068Z,96058.78
2022-10-18T20:46:21.851Z,96065.19
2022-10-18T20:48:50.273Z,96058.59
2022-10-18T20:51:17.515Z,96059.66
2022-10-18T20:53:44.179Z,96058.13
2022-10-18T20:56:20.256Z,96052.38
2022-10-18T20:58:49.545Z,96061.44
2022-10-18T21:01:22.328Z,96056.72
2022-10-18T21:03:51.235Z,96069.00
2022-10-18T21:06:20.880Z,96061.50
2022-10-18T21:08:52.651Z,96059.69
2022-10-18T21:11:19.329Z,96059.41
2022-10-18T21:13:50.680Z,96061.41
2022-10-18T21:16:19.508Z,96054.84
2022-10-18T21:18:48.945Z,96047.91
2022-10-18T21:21:19.248Z,96049.44
2022-10-18T21:23:47.337Z,96051.97
2022-10-18T21:26:18.286Z,96043.63
2022-10-18T21:28:45.861Z,96049.19
2022-10-18T21:31:16.664Z,96048.44
2022-10-18T21:33:45.250Z,96049.25
2022-10-18T21:36:12.987Z,96040.31
2022-10-18T21:38:39.615Z,96037.91
2022-10-18T21:41:10.238Z,96037.78
2022-10-18T21:43:42.173Z,96037.22
2022-10-18T21:46:10.491Z,96045.78
2022-10-18T21:48:38.611Z,96043.19
2022-10-18T21:51:08.418Z,96033.38
2022-10-18T21:53:36.040Z,96035.94
2022-10-18T21:56:12.664Z,96028.50
2022-10-18T21:58:40.616Z,96023.53
2022-10-18T22:01:19.368Z,96018.00
2022-10-18T22:03:50.216Z,96016.09
2022-10-18T22:06:17.955Z,96022.94
2022-10-18T22:08:57.585Z,96014.59
2022-10-18T22:11:31.079Z,96018.50
2022-10-18T22:13:57.896Z,96019.41
2022-10-18T22:16:24.947Z,96016.19
2022-10-18T22:18:53.166Z,96014.78
2022-10-18T22:21:20.631Z,96013.84
2022-10-18T22:23:50.411Z,96009.78
2022-10-18T22:26:23.614Z,96015.78
2022-10-18T22:28:56.047Z,96014.72
2022-10-18T22:31:26.273Z,96006.38
2022-10-18T22:33:55.559Z,96005.81
2022-10-18T22:36:23.190Z,96003.22
2022-10-18T22:38:50.422Z,96004.06
2022-10-18T22:41:17.515Z,96006.94
2022-10-18T22:43:44.832Z,95994.16
2022-10-18T22:46:14.513Z,95991.19
2022-10-18T22:48:41.209Z,95992.84
2022-10-18T22:51:08.256Z,95987.59
2022-10-18T22:53:36.300Z,95997.09
2022-10-18T22:56:04.034Z,95986.56
2022-10-18T22:58:31.279Z,95986.84
2022-10-18T23:01:03.533Z,95986.00
2022-10-18T23:03:30.140Z,95982.41
2022-10-18T23:05:57.690Z,95976.69
2022-10-18T23:08:25.367Z,95979.91
2022-10-18T23:10:55.461Z,95979.78
2022-10-18T23:13:23.816Z,95983.94
2022-10-18T23:15:51.217Z,95971.97
2022-10-18T23:18:18.531Z,95965.38
2022-10-18T23:20:45.720Z,95964.53
2022-10-18T23:23:13.493Z,95970.44
2022-10-18T23:25:40.293Z,95965.69
2022-10-18T23:28:07.065Z,95966.94
2022-10-18T23:30:37.818Z,95968.50
2022-10-18T23:33:04.510Z,95972.81
2022-10-18T23:35:31.311Z,95965.19
2022-10-18T23:37:58.192Z,95966.06
2022-10-18T23:40:24.965Z,95958.69
2022-10-18T23:42:51.603Z,95954.59
2022-10-18T23:45:18.278Z,95956.69
2022-10-18T23:47:46.159Z,95952.63
2022-10-18T23:50:12.808Z,95951.13
2022-10-18T23:52:39.606Z,95964.53
2022-10-18T23:55:06.986Z,95956.81
2022-10-18T23:57:33.845Z,95960.28
